sensor_id;sensor_type;location;lat;lon;timestamp;P1;durP1;ratioP1;P2;durP2;ratioP2
67227;SDS011;54139;42.616;23.748;2023-07-31T00:01:58;9.48;;;8.65;;
67227;SDS011;54139;42.616;23.748;2023-07-31T00:04:24;7.30;;;6.60;;
67227;SDS011;54139;42.616;23.748;2023-07-31T00:06:49;8.68;;;6.22;;
67227;SDS011;54139;42.616;23.748;2023-07-31T00:09:15;6.32;;;5.72;;
67227;SDS011;54139;42.616;23.748;2023-07-31T00:11:40;6.43;;;5.90;;
67227;SDS011;54139;42.616;23.748;2023-07-31T00:14:05;6.13;;;5.72;;
67227;SDS011;54139;42.616;23.748;2023-07-31T00:16:31;6.65;;;6.00;;
67227;SDS011;54139;42.616;23.748;2023-07-31T00:18:56;8.45;;;6.15;;
67227;SDS011;54139;42.616;23.748;2023-07-31T00:21:22;7.55;;;6.85;;
67227;SDS011;54139;42.616;23.748;2023-07-31T00:23:47;7.35;;;6.65;;
67227;SDS011;54139;42.616;23.748;2023-07-31T00:26:12;6.88;;;6.30;;
67227;SDS011;54139;42.616;23.748;2023-07-31T00:28:38;9.73;;;8.82;;
67227;SDS011;54139;42.616;23.748;2023-07-31T00:31:03;8.45;;;7.65;;
67227;SDS011;54139;42.616;23.748;2023-07-31T00:33:30;10.38;;;7.82;;
67227;SDS011;54139;42.616;23.748;2023-07-31T00:35:56;8.63;;;7.78;;
67227;SDS011;54139;42.616;23.748;2023-07-31T00:38:21;8.93;;;7.20;;
67227;SDS011;54139;42.616;23.748;2023-07-31T00:40:47;7.88;;;7.18;;
67227;SDS011;54139;42.616;23.748;2023-07-31T00:43:12;9.68;;;8.68;;
67227;SDS011;54139;42.616;23.748;2023-07-31T00:45:38;7.50;;;6.80;;
67227;SDS011;54139;42.616;23.748;2023-07-31T00:48:04;7.38;;;6.22;;
67227;SDS011;54139;42.616;23.748;2023-07-31T00:50:31;11.88;;;7.32;;
67227;SDS011;54139;42.616;23.748;2023-07-31T00:52:56;8.13;;;6.97;;
67227;SDS011;54139;42.616;23.748;2023-07-31T00:55:22;10.88;;;7.57;;
67227;SDS011;54139;42.616;23.748;2023-07-31T00:57:48;8.93;;;7.10;;
67227;SDS011;54139;42.616;23.748;2023-07-31T01:00:15;7.93;;;7.22;;
67227;SDS011;54139;42.616;23.748;2023-07-31T01:02:41;7.65;;;7.05;;
67227;SDS011;54139;42.616;23.748;2023-07-31T01:05:06;7.85;;;6.30;;
67227;SDS011;54139;42.616;23.748;2023-07-31T01:10:23;7.88;;;6.97;;
67227;SDS011;54139;42.616;23.748;2023-07-31T01:12:52;7.90;;;7.30;;
67227;SDS011;54139;42.616;23.748;2023-07-31T01:15:18;8.90;;;8.23;;
67227;SDS011;54139;42.616;23.748;2023-07-31T01:17:44;9.07;;;7.43;;
67227;SDS011;54139;42.616;23.748;2023-07-31T01:20:11;8.10;;;7.25;;
67227;SDS011;54139;42.616;23.748;2023-07-31T01:31:22;8.70;;;7.90;;
67227;SDS011;54139;42.616;23.748;2023-07-31T01:33:49;10.93;;;8.15;;
67227;SDS011;54139;42.616;23.748;2023-07-31T01:36:15;11.23;;;8.48;;
67227;SDS011;54139;42.616;23.748;2023-07-31T01:38:41;10.32;;;9.43;;
67227;SDS011;54139;42.616;23.748;2023-07-31T01:41:06;11.05;;;10.10;;
67227;SDS011;54139;42.616;23.748;2023-07-31T01:43:32;9.52;;;8.55;;
67227;SDS011;54139;42.616;23.748;2023-07-31T01:45:57;11.95;;;9.55;;
67227;SDS011;54139;42.616;23.748;2023-07-31T01:48:23;9.50;;;8.52;;
67227;SDS011;54139;42.616;23.748;2023-07-31T01:50:48;7.85;;;7.35;;
67227;SDS011;54139;42.616;23.748;2023-07-31T01:53:13;9.23;;;8.43;;
67227;SDS011;54139;42.616;23.748;2023-07-31T01:55:39;8.73;;;7.93;;
67227;SDS011;54139;42.616;23.748;2023-07-31T01:58:05;8.35;;;7.78;;
67227;SDS011;54139;42.616;23.748;2023-07-31T02:00:30;8.70;;;7.90;;
67227;SDS011;54139;42.616;23.748;2023-07-31T02:02:56;9.57;;;8.32;;
67227;SDS011;54139;42.616;23.748;2023-07-31T02:05:21;8.75;;;7.85;;
67227;SDS011;54139;42.616;23.748;2023-07-31T02:07:46;9.90;;;9.00;;
67227;SDS011;54139;42.616;23.748;2023-07-31T02:10:12;8.43;;;7.85;;
67227;SDS011;54139;42.616;23.748;2023-07-31T02:12:38;9.85;;;8.85;;
67227;SDS011;54139;42.616;23.748;2023-07-31T02:15:03;9.32;;;8.63;;
67227;SDS011;54139;42.616;23.748;2023-07-31T02:17:29;9.68;;;8.88;;
67227;SDS011;54139;42.616;23.748;2023-07-31T02:19:54;10.05;;;9.23;;
67227;SDS011;54139;42.616;23.748;2023-07-31T02:22:20;10.55;;;9.65;;
67227;SDS011;54139;42.616;23.748;2023-07-31T02:24:45;10.20;;;9.25;;
67227;SDS011;54139;42.616;23.748;2023-07-31T02:27:11;10.27;;;8.80;;
67227;SDS011;54139;42.616;23.748;2023-07-31T02:29:36;9.70;;;8.88;;
67227;SDS011;54139;42.616;23.748;2023-07-31T02:32:02;10.07;;;9.07;;
67227;SDS011;54139;42.616;23.748;2023-07-31T02:34:28;9.45;;;8.43;;
67227;SDS011;54139;42.616;23.748;2023-07-31T02:36:53;10.95;;;10.07;;
67227;SDS011;54139;42.616;23.748;2023-07-31T02:39:19;10.20;;;9.50;;
67227;SDS011;54139;42.616;23.748;2023-07-31T02:41:44;11.57;;;10.57;;
67227;SDS011;54139;42.616;23.748;2023-07-31T02:44:10;12.88;;;11.77;;
67227;SDS011;54139;42.616;23.748;2023-07-31T02:46:37;10.43;;;9.68;;
67227;SDS011;54139;42.616;23.748;2023-07-31T02:49:03;13.52;;;12.48;;
67227;SDS011;54139;42.616;23.748;2023-07-31T02:51:28;11.63;;;10.73;;
67227;SDS011;54139;42.616;23.748;2023-07-31T02:53:54;12.80;;;11.80;;
67227;SDS011;54139;42.616;23.748;2023-07-31T02:56:19;13.07;;;12.27;;
67227;SDS011;54139;42.616;23.748;2023-07-31T02:58:45;14.77;;;13.57;;
67227;SDS011;54139;42.616;23.748;2023-07-31T03:01:10;15.10;;;13.48;;
67227;SDS011;54139;42.616;23.748;2023-07-31T03:03:36;17.35;;;15.65;;
67227;SDS011;54139;42.616;23.748;2023-07-31T03:06:01;17.38;;;16.10;;
67227;SDS011;54139;42.616;23.748;2023-07-31T03:08:26;18.45;;;16.90;;
67227;SDS011;54139;42.616;23.748;2023-07-31T03:10:52;20.60;;;18.85;;
67227;SDS011;54139;42.616;23.748;2023-07-31T03:13:17;19.77;;;18.17;;
67227;SDS011;54139;42.616;23.748;2023-07-31T03:15:43;22.25;;;20.65;;
67227;SDS011;54139;42.616;23.748;2023-07-31T03:18:08;21.17;;;19.52;;
67227;SDS011;54139;42.616;23.748;2023-07-31T03:20:34;22.90;;;20.92;;
67227;SDS011;54139;42.616;23.748;2023-07-31T03:23:00;23.98;;;21.95;;
67227;SDS011;54139;42.616;23.748;2023-07-31T03:25:25;24.00;;;22.02;;
67227;SDS011;54139;42.616;23.748;2023-07-31T03:27:50;23.95;;;22.00;;
67227;SDS011;54139;42.616;23.748;2023-07-31T03:30:16;23.63;;;21.77;;
67227;SDS011;54139;42.616;23.748;2023-07-31T03:32:41;24.55;;;22.70;;
67227;SDS011;54139;42.616;23.748;2023-07-31T03:35:07;24.10;;;22.05;;
67227;SDS011;54139;42.616;23.748;2023-07-31T03:37:32;27.67;;;25.17;;
67227;SDS011;54139;42.616;23.748;2023-07-31T03:39:58;28.08;;;25.55;;
67227;SDS011;54139;42.616;23.748;2023-07-31T03:42:24;27.27;;;24.60;;
67227;SDS011;54139;42.616;23.748;2023-07-31T03:44:49;32.03;;;28.98;;
67227;SDS011;54139;42.616;23.748;2023-07-31T03:47:15;34.80;;;31.45;;
67227;SDS011;54139;42.616;23.748;2023-07-31T03:49:40;30.90;;;28.20;;
67227;SDS011;54139;42.616;23.748;2023-07-31T03:52:06;33.42;;;30.42;;
67227;SDS011;54139;42.616;23.748;2023-07-31T03:54:31;38.53;;;34.83;;
67227;SDS011;54139;42.616;23.748;2023-07-31T03:56:57;40.72;;;37.08;;
67227;SDS011;54139;42.616;23.748;2023-07-31T03:59:22;38.47;;;34.78;;
67227;SDS011;54139;42.616;23.748;2023-07-31T04:01:48;37.70;;;34.03;;
67227;SDS011;54139;42.616;23.748;2023-07-31T04:04:13;42.22;;;38.22;;
67227;SDS011;54139;42.616;23.748;2023-07-31T04:06:39;39.22;;;35.63;;
67227;SDS011;54139;42.616;23.748;2023-07-31T04:09:04;45.53;;;41.47;;
67227;SDS011;54139;42.616;23.748;2023-07-31T04:11:30;37.08;;;33.65;;
67227;SDS011;54139;42.616;23.748;2023-07-31T04:13:55;39.25;;;35.78;;
67227;SDS011;54139;42.616;23.748;2023-07-31T04:16:20;41.38;;;37.50;;
67227;SDS011;54139;42.616;23.748;2023-07-31T04:18:46;42.63;;;38.60;;
67227;SDS011;54139;42.616;23.748;2023-07-31T04:21:11;41.30;;;37.42;;
67227;SDS011;54139;42.616;23.748;2023-07-31T04:23:37;40.83;;;36.88;;
67227;SDS011;54139;42.616;23.748;2023-07-31T04:26:03;42.50;;;38.47;;
67227;SDS011;54139;42.616;23.748;2023-07-31T04:28:28;47.92;;;42.92;;
67227;SDS011;54139;42.616;23.748;2023-07-31T04:30:56;46.15;;;41.55;;
67227;SDS011;54139;42.616;23.748;2023-07-31T04:33:22;44.60;;;40.40;;
67227;SDS011;54139;42.616;23.748;2023-07-31T04:35:51;43.47;;;39.25;;
67227;SDS011;54139;42.616;23.748;2023-07-31T04:38:17;43.92;;;39.88;;
67227;SDS011;54139;42.616;23.748;2023-07-31T04:40:44;43.35;;;39.47;;
67227;SDS011;54139;42.616;23.748;2023-07-31T04:43:09;42.80;;;38.70;;
67227;SDS011;54139;42.616;23.748;2023-07-31T04:45:35;42.05;;;38.08;;
67227;SDS011;54139;42.616;23.748;2023-07-31T04:48:00;42.60;;;38.55;;
67227;SDS011;54139;42.616;23.748;2023-07-31T04:50:26;44.60;;;40.28;;
67227;SDS011;54139;42.616;23.748;2023-07-31T04:52:51;43.33;;;39.28;;
67227;SDS011;54139;42.616;23.748;2023-07-31T04:55:17;39.53;;;35.95;;
67227;SDS011;54139;42.616;23.748;2023-07-31T04:57:42;38.70;;;35.00;;
67227;SDS011;54139;42.616;23.748;2023-07-31T05:00:08;41.65;;;37.53;;
67227;SDS011;54139;42.616;23.748;2023-07-31T05:02:33;38.15;;;34.55;;
67227;SDS011;54139;42.616;23.748;2023-07-31T05:04:59;38.63;;;34.85;;
67227;SDS011;54139;42.616;23.748;2023-07-31T05:07:24;39.55;;;35.95;;
67227;SDS011;54139;42.616;23.748;2023-07-31T05:09:50;40.08;;;36.33;;
67227;SDS011;54139;42.616;23.748;2023-07-31T05:12:15;39.63;;;35.40;;
67227;SDS011;54139;42.616;23.748;2023-07-31T05:14:41;41.67;;;37.80;;
67227;SDS011;54139;42.616;23.748;2023-07-31T05:17:06;37.13;;;33.55;;
67227;SDS011;54139;42.616;23.748;2023-07-31T05:19:31;43.65;;;39.40;;
67227;SDS011;54139;42.616;23.748;2023-07-31T05:21:57;40.08;;;36.08;;
67227;SDS011;54139;42.616;23.748;2023-07-31T05:24:23;41.83;;;37.53;;
67227;SDS011;54139;42.616;23.748;2023-07-31T05:26:48;40.60;;;36.60;;
67227;SDS011;54139;42.616;23.748;2023-07-31T05:29:14;41.25;;;37.05;;
67227;SDS011;54139;42.616;23.748;2023-07-31T05:31:39;40.88;;;36.95;;
67227;SDS011;54139;42.616;23.748;2023-07-31T05:34:05;39.38;;;35.20;;
67227;SDS011;54139;42.616;23.748;2023-07-31T05:36:30;37.85;;;34.35;;
67227;SDS011;54139;42.616;23.748;2023-07-31T05:38:56;41.35;;;37.17;;
67227;SDS011;54139;42.616;23.748;2023-07-31T05:41:21;36.97;;;33.25;;
67227;SDS011;54139;42.616;23.748;2023-07-31T05:43:46;38.65;;;34.85;;
67227;SDS011;54139;42.616;23.748;2023-07-31T05:46:12;38.40;;;34.55;;
67227;SDS011;54139;42.616;23.748;2023-07-31T05:48:37;40.42;;;36.22;;
67227;SDS011;54139;42.616;23.748;2023-07-31T05:51:03;41.95;;;37.67;;
67227;SDS011;54139;42.616;23.748;2023-07-31T05:53:28;40.60;;;36.72;;
67227;SDS011;54139;42.616;23.748;2023-07-31T05:55:54;40.15;;;36.05;;
67227;SDS011;54139;42.616;23.748;2023-07-31T05:58:19;39.17;;;35.28;;
67227;SDS011;54139;42.616;23.748;2023-07-31T06:00:45;38.60;;;35.05;;
67227;SDS011;54139;42.616;23.748;2023-07-31T06:03:10;43.25;;;38.65;;
67227;SDS011;54139;42.616;23.748;2023-07-31T06:05:36;38.30;;;34.60;;
67227;SDS011;54139;42.616;23.748;2023-07-31T06:08:01;38.75;;;35.25;;
67227;SDS011;54139;42.616;23.748;2023-07-31T06:10:27;36.28;;;32.90;;
67227;SDS011;54139;42.616;23.748;2023-07-31T06:12:53;32.50;;;29.40;;
67227;SDS011;54139;42.616;23.748;2023-07-31T06:15:19;33.45;;;30.45;;
67227;SDS011;54139;42.616;23.748;2023-07-31T06:17:44;32.03;;;29.23;;
67227;SDS011;54139;42.616;23.748;2023-07-31T06:20:10;26.90;;;24.70;;
67227;SDS011;54139;42.616;23.748;2023-07-31T06:22:36;22.73;;;21.20;;
67227;SDS011;54139;42.616;23.748;2023-07-31T06:25:02;21.88;;;20.35;;
67227;SDS011;54139;42.616;23.748;2023-07-31T06:27:27;19.52;;;18.10;;
67227;SDS011;54139;42.616;23.748;2023-07-31T06:29:53;21.67;;;20.05;;
67227;SDS011;54139;42.616;23.748;2023-07-31T06:32:18;22.08;;;20.10;;
67227;SDS011;54139;42.616;23.748;2023-07-31T06:34:43;21.70;;;19.83;;
67227;SDS011;54139;42.616;23.748;2023-07-31T06:37:09;19.83;;;18.23;;
67227;SDS011;54139;42.616;23.748;2023-07-31T06:39:34;18.42;;;17.13;;
67227;SDS011;54139;42.616;23.748;2023-07-31T06:42:00;18.67;;;17.27;;
67227;SDS011;54139;42.616;23.748;2023-07-31T06:44:25;17.42;;;16.17;;
67227;SDS011;54139;42.616;23.748;2023-07-31T06:46:51;19.42;;;18.02;;
67227;SDS011;54139;42.616;23.748;2023-07-31T06:49:16;20.25;;;18.77;;
67227;SDS011;54139;42.616;23.748;2023-07-31T06:51:41;21.13;;;19.35;;
67227;SDS011;54139;42.616;23.748;2023-07-31T06:54:08;22.13;;;20.35;;
67227;SDS011;54139;42.616;23.748;2023-07-31T06:56:33;21.85;;;19.75;;
67227;SDS011;54139;42.616;23.748;2023-07-31T06:58:59;19.05;;;17.23;;
67227;SDS011;54139;42.616;23.748;2023-07-31T07:01:24;17.13;;;15.90;;
67227;SDS011;54139;42.616;23.748;2023-07-31T07:03:50;15.05;;;13.98;;
67227;SDS011;54139;42.616;23.748;2023-07-31T07:06:19;15.65;;;14.18;;
67227;SDS011;54139;42.616;23.748;2023-07-31T07:08:45;14.63;;;13.63;;
67227;SDS011;54139;42.616;23.748;2023-07-31T07:11:10;13.95;;;12.98;;
67227;SDS011;54139;42.616;23.748;2023-07-31T07:13:36;13.32;;;12.13;;
67227;SDS011;54139;42.616;23.748;2023-07-31T07:16:01;13.85;;;12.63;;
67227;SDS011;54139;42.616;23.748;2023-07-31T07:18:27;12.20;;;11.07;;
67227;SDS011;54139;42.616;23.748;2023-07-31T07:20:53;13.45;;;12.32;;
67227;SDS011;54139;42.616;23.748;2023-07-31T07:23:19;12.52;;;11.50;;
67227;SDS011;54139;42.616;23.748;2023-07-31T07:25:46;11.65;;;10.75;;
67227;SDS011;54139;42.616;23.748;2023-07-31T07:28:12;10.70;;;9.25;;
67227;SDS011;54139;42.616;23.748;2023-07-31T07:30:38;10.23;;;9.23;;
67227;SDS011;54139;42.616;23.748;2023-07-31T07:33:03;8.57;;;7.97;;
67227;SDS011;54139;42.616;23.748;2023-07-31T07:35:29;7.57;;;7.00;;
67227;SDS011;54139;42.616;23.748;2023-07-31T07:37:54;9.25;;;8.27;;
67227;SDS011;54139;42.616;23.748;2023-07-31T07:40:20;9.95;;;7.22;;
67227;SDS011;54139;42.616;23.748;2023-07-31T07:42:46;8.13;;;7.47;;
67227;SDS011;54139;42.616;23.748;2023-07-31T07:45:11;8.38;;;7.78;;
67227;SDS011;54139;42.616;23.748;2023-07-31T07:47:37;7.60;;;7.10;;
67227;SDS011;54139;42.616;23.748;2023-07-31T07:50:03;10.13;;;7.45;;
67227;SDS011;54139;42.616;23.748;2023-07-31T07:52:29;7.03;;;6.28;;
67227;SDS011;54139;42.616;23.748;2023-07-31T07:54:54;6.60;;;6.00;;
67227;SDS011;54139;42.616;23.748;2023-07-31T07:57:20;6.38;;;5.70;;
67227;SDS011;54139;42.616;23.748;2023-07-31T07:59:45;6.80;;;5.55;;
67227;SDS011;54139;42.616;23.748;2023-07-31T08:02:11;6.35;;;5.85;;
67227;SDS011;54139;42.616;23.748;2023-07-31T08:04:36;6.05;;;5.32;;
67227;SDS011;54139;42.616;23.748;2023-07-31T08:07:02;6.30;;;5.80;;
67227;SDS011;54139;42.616;23.748;2023-07-31T08:09:28;5.45;;;4.85;;
67227;SDS011;54139;42.616;23.748;2023-07-31T08:11:53;6.32;;;5.78;;
67227;SDS011;54139;42.616;23.748;2023-07-31T08:14:19;6.25;;;5.82;;
67227;SDS011;54139;42.616;23.748;2023-07-31T08:16:45;5.85;;;5.30;;
67227;SDS011;54139;42.616;23.748;2023-07-31T08:19:10;5.82;;;5.40;;
67227;SDS011;54139;42.616;23.748;2023-07-31T08:21:36;5.57;;;5.03;;
67227;SDS011;54139;42.616;23.748;2023-07-31T08:24:02;5.93;;;5.40;;
67227;SDS011;54139;42.616;23.748;2023-07-31T08:26:27;5.95;;;5.40;;
67227;SDS011;54139;42.616;23.748;2023-07-31T08:28:53;5.95;;;5.45;;
67227;SDS011;54139;42.616;23.748;2023-07-31T08:31:18;5.10;;;4.70;;
67227;SDS011;54139;42.616;23.748;2023-07-31T08:33:44;6.00;;;5.60;;
67227;SDS011;54139;42.616;23.748;2023-07-31T08:36:09;5.75;;;5.45;;
67227;SDS011;54139;42.616;23.748;2023-07-31T08:38:35;9.13;;;5.53;;
67227;SDS011;54139;42.616;23.748;2023-07-31T08:41:00;5.95;;;5.10;;
67227;SDS011;54139;42.616;23.748;2023-07-31T08:43:28;8.60;;;5.80;;
67227;SDS011;54139;42.616;23.748;2023-07-31T08:45:54;6.18;;;5.70;;
67227;SDS011;54139;42.616;23.748;2023-07-31T08:48:21;5.80;;;5.40;;
67227;SDS011;54139;42.616;23.748;2023-07-31T08:50:47;6.37;;;5.77;;
67227;SDS011;54139;42.616;23.748;2023-07-31T08:53:13;6.50;;;4.95;;
67227;SDS011;54139;42.616;23.748;2023-07-31T08:55:38;5.13;;;4.78;;
67227;SDS011;54139;42.616;23.748;2023-07-31T08:58:05;5.55;;;5.15;;
67227;SDS011;54139;42.616;23.748;2023-07-31T09:00:34;5.28;;;4.93;;
67227;SDS011;54139;42.616;23.748;2023-07-31T09:03:34;9.43;;;5.68;;
67227;SDS011;54139;42.616;23.748;2023-07-31T09:05:53;6.05;;;5.20;;
67227;SDS011;54139;42.616;23.748;2023-07-31T09:08:24;6.07;;;5.57;;
67227;SDS011;54139;42.616;23.748;2023-07-31T09:10:52;5.57;;;5.18;;
67227;SDS011;54139;42.616;23.748;2023-07-31T09:13:18;5.03;;;4.63;;
67227;SDS011;54139;42.616;23.748;2023-07-31T09:15:44;7.18;;;5.35;;
67227;SDS011;54139;42.616;23.748;2023-07-31T09:18:10;6.13;;;5.10;;
67227;SDS011;54139;42.616;23.748;2023-07-31T09:20:36;5.25;;;4.95;;
67227;SDS011;54139;42.616;23.748;2023-07-31T09:23:08;9.73;;;4.82;;
67227;SDS011;54139;42.616;23.748;2023-07-31T09:25:38;4.50;;;4.20;;
67227;SDS011;54139;42.616;23.748;2023-07-31T09:28:08;5.75;;;5.25;;
67227;SDS011;54139;42.616;23.748;2023-07-31T09:33:30;5.07;;;4.68;;
67227;SDS011;54139;42.616;23.748;2023-07-31T09:35:58;5.22;;;4.82;;
67227;SDS011;54139;42.616;23.748;2023-07-31T09:38:23;5.20;;;4.80;;
67227;SDS011;54139;42.616;23.748;2023-07-31T09:40:49;6.43;;;4.55;;
67227;SDS011;54139;42.616;23.748;2023-07-31T09:43:21;5.07;;;4.68;;
67227;SDS011;54139;42.616;23.748;2023-07-31T09:45:47;4.40;;;4.10;;
67227;SDS011;54139;42.616;23.748;2023-07-31T09:48:16;5.43;;;4.20;;
67227;SDS011;54139;42.616;23.748;2023-07-31T09:50:47;4.75;;;4.35;;
67227;SDS011;54139;42.616;23.748;2023-07-31T09:53:14;4.72;;;4.43;;
67227;SDS011;54139;42.616;23.748;2023-07-31T09:55:40;4.20;;;3.92;;
67227;SDS011;54139;42.616;23.748;2023-07-31T09:58:07;4.28;;;3.50;;
67227;SDS011;54139;42.616;23.748;2023-07-31T10:00:33;4.20;;;3.90;;
67227;SDS011;54139;42.616;23.748;2023-07-31T10:03:00;4.53;;;4.20;;
67227;SDS011;54139;42.616;23.748;2023-07-31T10:05:40;4.25;;;4.00;;
67227;SDS011;54139;42.616;23.748;2023-07-31T10:08:08;4.22;;;3.83;;
67227;SDS011;54139;42.616;23.748;2023-07-31T10:10:36;4.30;;;3.92;;
67227;SDS011;54139;42.616;23.748;2023-07-31T10:13:01;4.18;;;3.88;;
67227;SDS011;54139;42.616;23.748;2023-07-31T10:15:27;4.30;;;4.00;;
67227;SDS011;54139;42.616;23.748;2023-07-31T10:17:53;3.80;;;3.50;;
67227;SDS011;54139;42.616;23.748;2023-07-31T10:20:20;4.03;;;3.70;;
67227;SDS011;54139;42.616;23.748;2023-07-31T10:22:46;3.88;;;3.58;;
67227;SDS011;54139;42.616;23.748;2023-07-31T10:25:13;4.22;;;3.83;;
67227;SDS011;54139;42.616;23.748;2023-07-31T10:27:38;5.22;;;3.40;;
67227;SDS011;54139;42.616;23.748;2023-07-31T10:30:04;3.60;;;3.40;;
67227;SDS011;54139;42.616;23.748;2023-07-31T10:32:31;4.05;;;3.50;;
67227;SDS011;54139;42.616;23.748;2023-07-31T10:34:57;3.95;;;3.65;;
67227;SDS011;54139;42.616;23.748;2023-07-31T10:42:20;3.10;;;2.90;;
67227;SDS011;54139;42.616;23.748;2023-07-31T10:44:56;5.10;;;2.90;;
67227;SDS011;54139;42.616;23.748;2023-07-31T10:47:22;2.90;;;2.70;;
67227;SDS011;54139;42.616;23.748;2023-07-31T10:49:48;3.40;;;3.20;;
67227;SDS011;54139;42.616;23.748;2023-07-31T10:52:13;3.13;;;2.83;;
67227;SDS011;54139;42.616;23.748;2023-07-31T10:54:47;3.08;;;2.88;;
67227;SDS011;54139;42.616;23.748;2023-07-31T10:57:23;3.92;;;3.03;;
67227;SDS011;54139;42.616;23.748;2023-07-31T10:59:50;3.15;;;2.95;;
67227;SDS011;54139;42.616;23.748;2023-07-31T11:02:28;3.13;;;2.92;;
67227;SDS011;54139;42.616;23.748;2023-07-31T11:05:06;2.85;;;2.65;;
67227;SDS011;54139;42.616;23.748;2023-07-31T11:07:47;3.83;;;2.67;;
67227;SDS011;54139;42.616;23.748;2023-07-31T11:10:17;3.28;;;2.72;;
67227;SDS011;54139;42.616;23.748;2023-07-31T11:12:43;2.80;;;2.60;;
67227;SDS011;54139;42.616;23.748;2023-07-31T11:15:10;2.10;;;1.98;;
67227;SDS011;54139;42.616;23.748;2023-07-31T11:17:39;2.90;;;2.70;;
67227;SDS011;54139;42.616;23.748;2023-07-31T11:20:06;2.45;;;2.28;;
67227;SDS011;54139;42.616;23.748;2023-07-31T11:22:32;2.53;;;2.03;;
67227;SDS011;54139;42.616;23.748;2023-07-31T11:25:00;2.47;;;2.28;;
67227;SDS011;54139;42.616;23.748;2023-07-31T11:27:29;2.17;;;1.98;;
67227;SDS011;54139;42.616;23.748;2023-07-31T11:30:01;2.03;;;1.92;;
67227;SDS011;54139;42.616;23.748;2023-07-31T11:32:27;3.03;;;1.98;;
67227;SDS011;54139;42.616;23.748;2023-07-31T11:34:53;1.92;;;1.80;;
67227;SDS011;54139;42.616;23.748;2023-07-31T11:42:27;2.80;;;2.35;;
67227;SDS011;54139;42.616;23.748;2023-07-31T11:44:53;2.20;;;2.10;;
67227;SDS011;54139;42.616;23.748;2023-07-31T11:47:18;1.95;;;1.73;;
67227;SDS011;54139;42.616;23.748;2023-07-31T11:49:44;1.88;;;1.77;;
67227;SDS011;54139;42.616;23.748;2023-07-31T11:52:10;2.25;;;2.15;;
67227;SDS011;54139;42.616;23.748;2023-07-31T11:54:36;2.08;;;1.90;;
67227;SDS011;54139;42.616;23.748;2023-07-31T11:57:02;2.20;;;2.00;;
67227;SDS011;54139;42.616;23.748;2023-07-31T11:59:27;3.03;;;1.85;;
67227;SDS011;54139;42.616;23.748;2023-07-31T12:01:53;3.33;;;2.03;;
67227;SDS011;54139;42.616;23.748;2023-07-31T12:04:19;2.42;;;1.90;;
67227;SDS011;54139;42.616;23.748;2023-07-31T12:06:46;2.77;;;1.77;;
67227;SDS011;54139;42.616;23.748;2023-07-31T12:09:13;1.92;;;1.83;;
67227;SDS011;54139;42.616;23.748;2023-07-31T12:11:43;2.13;;;1.85;;
67227;SDS011;54139;42.616;23.748;2023-07-31T12:14:19;2.78;;;1.98;;
67227;SDS011;54139;42.616;23.748;2023-07-31T12:16:52;4.78;;;2.00;;
67227;SDS011;54139;42.616;23.748;2023-07-31T12:19:19;5.97;;;2.22;;
67227;SDS011;54139;42.616;23.748;2023-07-31T12:21:44;2.00;;;1.73;;
67227;SDS011;54139;42.616;23.748;2023-07-31T12:24:10;1.80;;;1.70;;
67227;SDS011;54139;42.616;23.748;2023-07-31T12:26:35;1.75;;;1.65;;
67227;SDS011;54139;42.616;23.748;2023-07-31T12:29:01;2.10;;;1.90;;
67227;SDS011;54139;42.616;23.748;2023-07-31T12:31:27;2.67;;;1.60;;
67227;SDS011;54139;42.616;23.748;2023-07-31T12:33:53;2.50;;;1.50;;
67227;SDS011;54139;42.616;23.748;2023-07-31T12:36:21;1.83;;;1.73;;
67227;SDS011;54139;42.616;23.748;2023-07-31T12:38:48;3.08;;;1.92;;
67227;SDS011;54139;42.616;23.748;2023-07-31T12:41:14;1.92;;;1.73;;
67227;SDS011;54139;42.616;23.748;2023-07-31T12:43:40;2.13;;;1.88;;
67227;SDS011;54139;42.616;23.748;2023-07-31T12:46:07;2.00;;;1.90;;
67227;SDS011;54139;42.616;23.748;2023-07-31T12:48:33;4.10;;;1.83;;
67227;SDS011;54139;42.616;23.748;2023-07-31T12:50:58;3.08;;;2.25;;
67227;SDS011;54139;42.616;23.748;2023-07-31T12:53:24;2.25;;;2.03;;
67227;SDS011;54139;42.616;23.748;2023-07-31T12:55:49;3.20;;;1.92;;
67227;SDS011;54139;42.616;23.748;2023-07-31T12:58:15;2.20;;;1.90;;
67227;SDS011;54139;42.616;23.748;2023-07-31T13:00:40;3.08;;;1.90;;
67227;SDS011;54139;42.616;23.748;2023-07-31T13:03:06;2.10;;;2.00;;
67227;SDS011;54139;42.616;23.748;2023-07-31T13:05:31;3.30;;;1.70;;
67227;SDS011;54139;42.616;23.748;2023-07-31T13:07:56;5.15;;;1.90;;
67227;SDS011;54139;42.616;23.748;2023-07-31T13:10:22;2.00;;;1.90;;
67227;SDS011;54139;42.616;23.748;2023-07-31T13:12:48;1.77;;;1.67;;
67227;SDS011;54139;42.616;23.748;2023-07-31T13:15:14;2.10;;;2.00;;
67227;SDS011;54139;42.616;23.748;2023-07-31T13:17:39;1.80;;;1.70;;
67227;SDS011;54139;42.616;23.748;2023-07-31T13:20:05;2.00;;;1.90;;
67227;SDS011;54139;42.616;23.748;2023-07-31T13:22:31;2.30;;;2.10;;
67227;SDS011;54139;42.616;23.748;2023-07-31T13:24:56;2.15;;;1.50;;
67227;SDS011;54139;42.616;23.748;2023-07-31T13:27:22;2.10;;;2.00;;
67227;SDS011;54139;42.616;23.748;2023-07-31T13:29:48;2.25;;;2.05;;
67227;SDS011;54139;42.616;23.748;2023-07-31T13:32:15;2.20;;;1.80;;
67227;SDS011;54139;42.616;23.748;2023-07-31T13:34:41;5.35;;;1.90;;
67227;SDS011;54139;42.616;23.748;2023-07-31T13:37:06;2.13;;;1.92;;
67227;SDS011;54139;42.616;23.748;2023-07-31T13:39:32;3.90;;;3.60;;
67227;SDS011;54139;42.616;23.748;2023-07-31T13:41:58;2.42;;;2.22;;
67227;SDS011;54139;42.616;23.748;2023-07-31T13:44:24;2.20;;;2.00;;
67227;SDS011;54139;42.616;23.748;2023-07-31T13:46:49;3.13;;;2.95;;
67227;SDS011;54139;42.616;23.748;2023-07-31T13:49:15;4.47;;;4.25;;
67227;SDS011;54139;42.616;23.748;2023-07-31T13:51:40;5.32;;;4.70;;
67227;SDS011;54139;42.616;23.748;2023-07-31T13:54:05;4.90;;;4.53;;
67227;SDS011;54139;42.616;23.748;2023-07-31T13:56:36;4.20;;;4.00;;
67227;SDS011;54139;42.616;23.748;2023-07-31T13:59:02;4.28;;;4.00;;
67227;SDS011;54139;42.616;23.748;2023-07-31T14:01:27;4.05;;;3.35;;
67227;SDS011;54139;42.616;23.748;2023-07-31T14:03:53;2.83;;;2.63;;
67227;SDS011;54139;42.616;23.748;2023-07-31T14:06:18;3.25;;;2.60;;
67227;SDS011;54139;42.616;23.748;2023-07-31T14:08:44;2.00;;;1.90;;
67227;SDS011;54139;42.616;23.748;2023-07-31T14:11:09;2.97;;;1.90;;
67227;SDS011;54139;42.616;23.748;2023-07-31T14:13:35;2.00;;;1.90;;
67227;SDS011;54139;42.616;23.748;2023-07-31T14:16:00;2.38;;;1.90;;
67227;SDS011;54139;42.616;23.748;2023-07-31T14:18:26;1.88;;;1.77;;
67227;SDS011;54139;42.616;23.748;2023-07-31T14:20:51;2.15;;;1.88;;
67227;SDS011;54139;42.616;23.748;2023-07-31T14:23:17;3.17;;;2.13;;
67227;SDS011;54139;42.616;23.748;2023-07-31T14:25:44;1.90;;;1.80;;
67227;SDS011;54139;42.616;23.748;2023-07-31T14:28:10;1.70;;;1.40;;
67227;SDS011;54139;42.616;23.748;2023-07-31T14:30:35;1.90;;;1.80;;
67227;SDS011;54139;42.616;23.748;2023-07-31T14:33:01;2.42;;;1.60;;
67227;SDS011;54139;42.616;23.748;2023-07-31T14:35:27;5.63;;;1.52;;
67227;SDS011;54139;42.616;23.748;2023-07-31T14:37:53;2.75;;;2.00;;
67227;SDS011;54139;42.616;23.748;2023-07-31T14:40:18;1.95;;;1.60;;
67227;SDS011;54139;42.616;23.748;2023-07-31T14:42:44;2.00;;;1.90;;
67227;SDS011;54139;42.616;23.748;2023-07-31T14:45:09;2.13;;;1.98;;